首页
METAR-TAF:

METAR-TAF

机场 :

锡根, 德国

纬度: 50-42-28N, 经度: 008-04-59E, 海拔: 602米

当前天气观测

该预报发布于3小时和13分钟前的16:50 UTC
风速11节,风向西南,在西转西南之间变化
温度 3°C
湿度 81%
气压 1025 hPa
能见度10公里或以上
少量云层高于2100英尺
多云层高于3300英尺

METAR: EDGS 211650Z 23011KT 190V250 9999 FEW021 BKN033 03/00 Q1025

时间: 21:03 (20:03 UTC)

预报

该预报发布于3小时和3分钟前的17:00 UTC
预报有效从21日的 18点(UTC)到 22日的 03点(UTC)
风速12节,风向西转西南
能见度10公里或以上
多云层高于2000英尺
短暂存在
从 21日的 18点(UTC)到 22日的 03点(UTC)
风速15节,风向西,有时为25节阵风
成为
从 21日的 21点(UTC)到 21日的 23点(UTC)
多云层高于1000英尺

TAF: EDGS 211700Z 2118/2203 24012KT 9999 BKN020 TEMPO 2118/2203 26015G25KT BECMG 2121/2123 BKN010

超过4000个机场的气象观测和天气预报(METAR&TAF报告)。

可查询的气象台以黄色和红色小点在地图上表示。

将鼠标移到小点上方,可查看气象台名称。

然后点击查看天气观测和预报。

如需切换地图:点击带黑十字的绿色按钮放大地图;点击带横线的绿色按钮缩小地图;或者点击绿色箭头查看邻近地区的地图。


METAR-TAF: